sensor_id;sensor_type;location;lat;lon;timestamp;P1;durP1;ratioP1;P2;durP2;ratioP2
51907;SDS011;39320;53.214;6.556;2023-05-07T00:00:21;10.95;;;9.85;;
51907;SDS011;39320;53.214;6.556;2023-05-07T00:03:21;11.45;;;10.35;;
51907;SDS011;39320;53.214;6.556;2023-05-07T00:05:47;11.82;;;10.63;;
51907;SDS011;39320;53.214;6.556;2023-05-07T00:08:13;10.82;;;9.73;;
51907;SDS011;39320;53.214;6.556;2023-05-07T00:10:39;11.13;;;10.02;;
51907;SDS011;39320;53.214;6.556;2023-05-07T00:13:04;12.43;;;11.32;;
51907;SDS011;39320;53.214;6.556;2023-05-07T00:15:30;11.85;;;10.70;;
51907;SDS011;39320;53.214;6.556;2023-05-07T00:17:56;10.40;;;9.43;;
51907;SDS011;39320;53.214;6.556;2023-05-07T00:20:24;10.65;;;9.52;;
51907;SDS011;39320;53.214;6.556;2023-05-07T00:22:50;10.68;;;9.77;;
51907;SDS011;39320;53.214;6.556;2023-05-07T00:25:16;10.10;;;9.15;;
51907;SDS011;39320;53.214;6.556;2023-05-07T00:27:44;11.88;;;10.73;;
51907;SDS011;39320;53.214;6.556;2023-05-07T00:30:10;13.15;;;11.75;;
51907;SDS011;39320;53.214;6.556;2023-05-07T00:32:36;12.18;;;11.00;;
51907;SDS011;39320;53.214;6.556;2023-05-07T00:35:03;11.20;;;10.30;;
51907;SDS011;39320;53.214;6.556;2023-05-07T00:37:29;10.85;;;9.82;;
51907;SDS011;39320;53.214;6.556;2023-05-07T00:39:55;12.05;;;10.95;;
51907;SDS011;39320;53.214;6.556;2023-05-07T00:42:21;11.63;;;10.52;;
51907;SDS011;39320;53.214;6.556;2023-05-07T00:44:46;11.40;;;10.30;;
51907;SDS011;39320;53.214;6.556;2023-05-07T00:47:13;11.85;;;10.68;;
51907;SDS011;39320;53.214;6.556;2023-05-07T00:49:43;12.95;;;11.65;;
51907;SDS011;39320;53.214;6.556;2023-05-07T00:52:14;12.65;;;11.35;;
51907;SDS011;39320;53.214;6.556;2023-05-07T00:54:42;11.68;;;10.68;;
51907;SDS011;39320;53.214;6.556;2023-05-07T00:57:09;12.55;;;11.40;;
51907;SDS011;39320;53.214;6.556;2023-05-07T00:59:36;13.35;;;11.77;;
51907;SDS011;39320;53.214;6.556;2023-05-07T01:02:02;12.60;;;11.30;;
51907;SDS011;39320;53.214;6.556;2023-05-07T01:04:27;12.40;;;11.20;;
51907;SDS011;39320;53.214;6.556;2023-05-07T01:06:56;11.82;;;10.82;;
51907;SDS011;39320;53.214;6.556;2023-05-07T01:09:24;12.43;;;11.23;;
51907;SDS011;39320;53.214;6.556;2023-05-07T01:11:51;12.88;;;11.57;;
51907;SDS011;39320;53.214;6.556;2023-05-07T01:14:18;12.90;;;11.75;;
51907;SDS011;39320;53.214;6.556;2023-05-07T01:16:45;12.65;;;11.52;;
51907;SDS011;39320;53.214;6.556;2023-05-07T01:19:12;12.52;;;11.30;;
51907;SDS011;39320;53.214;6.556;2023-05-07T01:21:42;13.75;;;12.13;;
51907;SDS011;39320;53.214;6.556;2023-05-07T01:24:12;12.95;;;11.90;;
51907;SDS011;39320;53.214;6.556;2023-05-07T01:26:38;13.23;;;11.90;;
51907;SDS011;39320;53.214;6.556;2023-05-07T01:29:04;14.43;;;13.02;;
51907;SDS011;39320;53.214;6.556;2023-05-07T01:31:31;14.68;;;12.93;;
51907;SDS011;39320;53.214;6.556;2023-05-07T01:33:59;13.75;;;12.55;;
51907;SDS011;39320;53.214;6.556;2023-05-07T01:36:26;13.75;;;12.45;;
51907;SDS011;39320;53.214;6.556;2023-05-07T01:38:54;13.90;;;12.60;;
51907;SDS011;39320;53.214;6.556;2023-05-07T01:41:23;13.13;;;11.93;;
51907;SDS011;39320;53.214;6.556;2023-05-07T01:43:50;12.95;;;11.65;;
51907;SDS011;39320;53.214;6.556;2023-05-07T01:46:17;12.95;;;11.68;;
51907;SDS011;39320;53.214;6.556;2023-05-07T01:48:44;13.30;;;12.00;;
51907;SDS011;39320;53.214;6.556;2023-05-07T01:51:11;12.88;;;11.57;;
51907;SDS011;39320;53.214;6.556;2023-05-07T01:53:37;12.57;;;11.32;;
51907;SDS011;39320;53.214;6.556;2023-05-07T01:56:04;12.82;;;11.60;;
51907;SDS011;39320;53.214;6.556;2023-05-07T01:58:30;14.05;;;12.15;;
51907;SDS011;39320;53.214;6.556;2023-05-07T02:00:56;12.82;;;11.70;;
51907;SDS011;39320;53.214;6.556;2023-05-07T02:03:21;12.27;;;11.18;;
51907;SDS011;39320;53.214;6.556;2023-05-07T02:05:47;11.80;;;10.77;;
51907;SDS011;39320;53.214;6.556;2023-05-07T02:08:13;12.52;;;11.32;;
51907;SDS011;39320;53.214;6.556;2023-05-07T02:10:39;14.13;;;12.70;;
51907;SDS011;39320;53.214;6.556;2023-05-07T02:13:05;12.95;;;11.65;;
51907;SDS011;39320;53.214;6.556;2023-05-07T02:15:31;13.23;;;11.90;;
51907;SDS011;39320;53.214;6.556;2023-05-07T02:18:03;13.88;;;12.50;;
51907;SDS011;39320;53.214;6.556;2023-05-07T02:20:31;12.88;;;11.57;;
51907;SDS011;39320;53.214;6.556;2023-05-07T02:22:57;14.20;;;12.80;;
51907;SDS011;39320;53.214;6.556;2023-05-07T02:25:23;12.98;;;11.77;;
51907;SDS011;39320;53.214;6.556;2023-05-07T02:27:49;13.05;;;11.77;;
51907;SDS011;39320;53.214;6.556;2023-05-07T02:30:15;12.90;;;11.70;;
51907;SDS011;39320;53.214;6.556;2023-05-07T02:32:41;13.30;;;12.05;;
51907;SDS011;39320;53.214;6.556;2023-05-07T02:35:07;13.30;;;12.05;;
51907;SDS011;39320;53.214;6.556;2023-05-07T02:37:33;14.35;;;13.00;;
51907;SDS011;39320;53.214;6.556;2023-05-07T02:39:58;13.65;;;12.35;;
51907;SDS011;39320;53.214;6.556;2023-05-07T02:42:24;12.70;;;11.60;;
51907;SDS011;39320;53.214;6.556;2023-05-07T02:44:50;13.15;;;11.90;;
51907;SDS011;39320;53.214;6.556;2023-05-07T02:47:16;13.75;;;12.45;;
51907;SDS011;39320;53.214;6.556;2023-05-07T02:49:41;14.50;;;13.07;;
51907;SDS011;39320;53.214;6.556;2023-05-07T02:52:08;14.68;;;12.65;;
51907;SDS011;39320;53.214;6.556;2023-05-07T02:54:34;13.82;;;12.52;;
51907;SDS011;39320;53.214;6.556;2023-05-07T02:57:00;13.63;;;12.23;;
51907;SDS011;39320;53.214;6.556;2023-05-07T02:59:27;14.07;;;12.77;;
51907;SDS011;39320;53.214;6.556;2023-05-07T03:01:52;13.98;;;12.57;;
51907;SDS011;39320;53.214;6.556;2023-05-07T03:04:18;13.88;;;12.55;;
51907;SDS011;39320;53.214;6.556;2023-05-07T03:06:44;13.70;;;12.40;;
51907;SDS011;39320;53.214;6.556;2023-05-07T03:09:10;12.73;;;11.48;;
51907;SDS011;39320;53.214;6.556;2023-05-07T03:11:36;14.60;;;13.20;;
51907;SDS011;39320;53.214;6.556;2023-05-07T03:14:01;13.90;;;12.20;;
51907;SDS011;39320;53.214;6.556;2023-05-07T03:16:27;14.18;;;12.88;;
51907;SDS011;39320;53.214;6.556;2023-05-07T03:18:53;13.90;;;12.50;;
51907;SDS011;39320;53.214;6.556;2023-05-07T03:21:19;13.40;;;12.00;;
51907;SDS011;39320;53.214;6.556;2023-05-07T03:23:45;14.35;;;13.00;;
51907;SDS011;39320;53.214;6.556;2023-05-07T03:26:10;14.02;;;12.63;;
51907;SDS011;39320;53.214;6.556;2023-05-07T03:28:36;14.95;;;13.50;;
51907;SDS011;39320;53.214;6.556;2023-05-07T03:31:02;12.85;;;11.70;;
51907;SDS011;39320;53.214;6.556;2023-05-07T03:33:28;14.77;;;13.27;;
51907;SDS011;39320;53.214;6.556;2023-05-07T03:35:54;13.05;;;11.80;;
51907;SDS011;39320;53.214;6.556;2023-05-07T03:38:19;13.82;;;12.52;;
51907;SDS011;39320;53.214;6.556;2023-05-07T03:40:45;14.80;;;13.50;;
51907;SDS011;39320;53.214;6.556;2023-05-07T03:43:11;13.57;;;12.32;;
51907;SDS011;39320;53.214;6.556;2023-05-07T03:45:37;14.45;;;12.95;;
51907;SDS011;39320;53.214;6.556;2023-05-07T03:48:03;13.85;;;12.40;;
51907;SDS011;39320;53.214;6.556;2023-05-07T03:50:29;13.88;;;12.52;;
51907;SDS011;39320;53.214;6.556;2023-05-07T03:52:54;14.98;;;13.48;;
51907;SDS011;39320;53.214;6.556;2023-05-07T03:55:20;14.15;;;12.75;;
51907;SDS011;39320;53.214;6.556;2023-05-07T03:57:46;13.80;;;12.57;;
51907;SDS011;39320;53.214;6.556;2023-05-07T04:00:12;14.38;;;12.98;;
51907;SDS011;39320;53.214;6.556;2023-05-07T04:02:38;12.93;;;11.63;;
51907;SDS011;39320;53.214;6.556;2023-05-07T04:05:04;14.32;;;12.93;;
51907;SDS011;39320;53.214;6.556;2023-05-07T04:07:30;13.18;;;11.98;;
51907;SDS011;39320;53.214;6.556;2023-05-07T04:09:56;13.50;;;12.20;;
51907;SDS011;39320;53.214;6.556;2023-05-07T04:12:21;12.80;;;11.57;;
51907;SDS011;39320;53.214;6.556;2023-05-07T04:14:47;13.60;;;12.35;;
51907;SDS011;39320;53.214;6.556;2023-05-07T04:17:13;14.77;;;13.32;;
51907;SDS011;39320;53.214;6.556;2023-05-07T04:19:39;14.10;;;12.65;;
51907;SDS011;39320;53.214;6.556;2023-05-07T04:22:04;14.18;;;12.68;;
51907;SDS011;39320;53.214;6.556;2023-05-07T04:24:33;13.13;;;11.93;;
51907;SDS011;39320;53.214;6.556;2023-05-07T04:26:59;13.88;;;12.68;;
51907;SDS011;39320;53.214;6.556;2023-05-07T04:29:24;14.80;;;13.32;;
51907;SDS011;39320;53.214;6.556;2023-05-07T04:31:50;15.45;;;13.80;;
51907;SDS011;39320;53.214;6.556;2023-05-07T04:34:16;14.45;;;12.95;;
51907;SDS011;39320;53.214;6.556;2023-05-07T04:36:42;14.10;;;12.80;;
51907;SDS011;39320;53.214;6.556;2023-05-07T04:39:08;13.55;;;12.35;;
51907;SDS011;39320;53.214;6.556;2023-05-07T04:41:35;14.20;;;12.77;;
51907;SDS011;39320;53.214;6.556;2023-05-07T04:44:01;14.20;;;12.80;;
51907;SDS011;39320;53.214;6.556;2023-05-07T04:46:29;12.40;;;11.18;;
51907;SDS011;39320;53.214;6.556;2023-05-07T04:48:55;14.55;;;12.38;;
51907;SDS011;39320;53.214;6.556;2023-05-07T04:51:20;13.43;;;12.23;;
51907;SDS011;39320;53.214;6.556;2023-05-07T04:53:46;12.50;;;11.35;;
51907;SDS011;39320;53.214;6.556;2023-05-07T04:56:12;12.82;;;11.73;;
51907;SDS011;39320;53.214;6.556;2023-05-07T04:58:38;12.65;;;11.35;;
51907;SDS011;39320;53.214;6.556;2023-05-07T05:01:03;13.18;;;11.88;;
51907;SDS011;39320;53.214;6.556;2023-05-07T05:03:30;12.48;;;11.38;;
51907;SDS011;39320;53.214;6.556;2023-05-07T05:05:56;12.18;;;11.07;;
51907;SDS011;39320;53.214;6.556;2023-05-07T05:08:24;13.38;;;12.15;;
51907;SDS011;39320;53.214;6.556;2023-05-07T05:10:50;13.13;;;11.93;;
51907;SDS011;39320;53.214;6.556;2023-05-07T05:13:16;12.45;;;11.35;;
51907;SDS011;39320;53.214;6.556;2023-05-07T05:15:42;12.85;;;11.65;;
51907;SDS011;39320;53.214;6.556;2023-05-07T05:18:08;12.52;;;11.38;;
51907;SDS011;39320;53.214;6.556;2023-05-07T05:20:34;13.63;;;12.13;;
51907;SDS011;39320;53.214;6.556;2023-05-07T05:22:59;12.13;;;11.02;;
51907;SDS011;39320;53.214;6.556;2023-05-07T05:25:25;12.63;;;11.38;;
51907;SDS011;39320;53.214;6.556;2023-05-07T05:27:51;12.27;;;11.18;;
51907;SDS011;39320;53.214;6.556;2023-05-07T05:30:17;13.20;;;11.85;;
51907;SDS011;39320;53.214;6.556;2023-05-07T05:32:42;12.57;;;11.43;;
51907;SDS011;39320;53.214;6.556;2023-05-07T05:35:08;12.60;;;11.30;;
51907;SDS011;39320;53.214;6.556;2023-05-07T05:37:34;13.15;;;11.95;;
51907;SDS011;39320;53.214;6.556;2023-05-07T05:40:00;13.55;;;12.27;;
51907;SDS011;39320;53.214;6.556;2023-05-07T05:42:25;12.27;;;11.05;;
51907;SDS011;39320;53.214;6.556;2023-05-07T05:44:51;11.93;;;10.73;;
51907;SDS011;39320;53.214;6.556;2023-05-07T05:47:17;12.75;;;11.45;;
51907;SDS011;39320;53.214;6.556;2023-05-07T05:49:43;12.20;;;11.10;;
51907;SDS011;39320;53.214;6.556;2023-05-07T05:52:09;13.23;;;12.02;;
51907;SDS011;39320;53.214;6.556;2023-05-07T05:54:39;12.88;;;11.57;;
51907;SDS011;39320;53.214;6.556;2023-05-07T05:57:04;12.13;;;11.02;;
51907;SDS011;39320;53.214;6.556;2023-05-07T05:59:31;12.52;;;11.43;;
51907;SDS011;39320;53.214;6.556;2023-05-07T06:01:56;12.32;;;11.13;;
51907;SDS011;39320;53.214;6.556;2023-05-07T06:04:22;10.98;;;9.98;;
51907;SDS011;39320;53.214;6.556;2023-05-07T06:06:51;11.50;;;10.40;;
51907;SDS011;39320;53.214;6.556;2023-05-07T06:09:17;12.43;;;10.82;;
51907;SDS011;39320;53.214;6.556;2023-05-07T06:11:42;12.30;;;11.10;;
51907;SDS011;39320;53.214;6.556;2023-05-07T06:14:08;12.23;;;11.13;;
51907;SDS011;39320;53.214;6.556;2023-05-07T06:16:34;11.70;;;10.60;;
51907;SDS011;39320;53.214;6.556;2023-05-07T06:19:00;11.63;;;10.35;;
51907;SDS011;39320;53.214;6.556;2023-05-07T06:21:26;12.65;;;11.43;;
51907;SDS011;39320;53.214;6.556;2023-05-07T06:23:52;11.27;;;10.18;;
51907;SDS011;39320;53.214;6.556;2023-05-07T06:26:17;11.13;;;10.13;;
51907;SDS011;39320;53.214;6.556;2023-05-07T06:28:43;12.25;;;11.05;;
51907;SDS011;39320;53.214;6.556;2023-05-07T06:31:16;11.93;;;10.77;;
51907;SDS011;39320;53.214;6.556;2023-05-07T06:33:45;11.27;;;10.18;;
51907;SDS011;39320;53.214;6.556;2023-05-07T06:36:11;12.60;;;11.45;;
51907;SDS011;39320;53.214;6.556;2023-05-07T06:38:37;12.13;;;11.00;;
51907;SDS011;39320;53.214;6.556;2023-05-07T06:41:03;12.15;;;10.95;;
51907;SDS011;39320;53.214;6.556;2023-05-07T06:43:30;12.73;;;11.55;;
51907;SDS011;39320;53.214;6.556;2023-05-07T06:45:56;11.77;;;10.68;;
51907;SDS011;39320;53.214;6.556;2023-05-07T06:48:28;12.63;;;11.38;;
51907;SDS011;39320;53.214;6.556;2023-05-07T06:50:54;12.13;;;11.10;;
51907;SDS011;39320;53.214;6.556;2023-05-07T06:53:22;11.98;;;10.93;;
51907;SDS011;39320;53.214;6.556;2023-05-07T06:55:48;12.85;;;11.60;;
51907;SDS011;39320;53.214;6.556;2023-05-07T06:58:14;12.45;;;11.35;;
51907;SDS011;39320;53.214;6.556;2023-05-07T07:00:40;12.88;;;11.60;;
51907;SDS011;39320;53.214;6.556;2023-05-07T07:03:06;12.70;;;11.63;;
51907;SDS011;39320;53.214;6.556;2023-05-07T07:05:32;12.27;;;11.05;;
51907;SDS011;39320;53.214;6.556;2023-05-07T07:07:57;13.70;;;11.73;;
51907;SDS011;39320;53.214;6.556;2023-05-07T07:10:23;12.43;;;11.20;;
51907;SDS011;39320;53.214;6.556;2023-05-07T07:12:49;12.20;;;11.10;;
51907;SDS011;39320;53.214;6.556;2023-05-07T07:15:15;12.18;;;11.15;;
51907;SDS011;39320;53.214;6.556;2023-05-07T07:17:41;12.00;;;10.95;;
51907;SDS011;39320;53.214;6.556;2023-05-07T07:20:07;11.20;;;10.00;;
51907;SDS011;39320;53.214;6.556;2023-05-07T07:22:33;12.07;;;10.77;;
51907;SDS011;39320;53.214;6.556;2023-05-07T07:24:59;11.98;;;10.75;;
51907;SDS011;39320;53.214;6.556;2023-05-07T07:27:25;11.55;;;10.55;;
51907;SDS011;39320;53.214;6.556;2023-05-07T07:29:51;11.52;;;10.35;;
51907;SDS011;39320;53.214;6.556;2023-05-07T07:32:16;13.32;;;12.05;;
51907;SDS011;39320;53.214;6.556;2023-05-07T07:34:42;12.25;;;11.10;;
51907;SDS011;39320;53.214;6.556;2023-05-07T07:37:08;11.35;;;10.27;;
51907;SDS011;39320;53.214;6.556;2023-05-07T07:39:34;12.23;;;11.13;;
51907;SDS011;39320;53.214;6.556;2023-05-07T07:42:00;13.80;;;11.52;;
51907;SDS011;39320;53.214;6.556;2023-05-07T07:44:27;13.35;;;11.95;;
51907;SDS011;39320;53.214;6.556;2023-05-07T07:46:53;12.90;;;11.60;;
51907;SDS011;39320;53.214;6.556;2023-05-07T07:49:18;13.05;;;11.85;;
51907;SDS011;39320;53.214;6.556;2023-05-07T07:51:44;13.40;;;12.13;;
51907;SDS011;39320;53.214;6.556;2023-05-07T07:54:10;12.23;;;11.07;;
51907;SDS011;39320;53.214;6.556;2023-05-07T07:56:36;12.15;;;10.98;;
51907;SDS011;39320;53.214;6.556;2023-05-07T07:59:02;13.52;;;11.55;;
51907;SDS011;39320;53.214;6.556;2023-05-07T08:01:29;13.38;;;11.40;;
51907;SDS011;39320;53.214;6.556;2023-05-07T08:03:55;14.77;;;11.93;;
51907;SDS011;39320;53.214;6.556;2023-05-07T08:06:23;13.45;;;12.15;;
51907;SDS011;39320;53.214;6.556;2023-05-07T08:08:50;13.85;;;12.55;;
51907;SDS011;39320;53.214;6.556;2023-05-07T08:11:17;12.40;;;11.27;;
51907;SDS011;39320;53.214;6.556;2023-05-07T08:13:43;12.93;;;11.52;;
51907;SDS011;39320;53.214;6.556;2023-05-07T08:16:09;13.07;;;11.65;;
51907;SDS011;39320;53.214;6.556;2023-05-07T08:18:35;13.43;;;12.05;;
51907;SDS011;39320;53.214;6.556;2023-05-07T08:21:01;13.82;;;12.43;;
51907;SDS011;39320;53.214;6.556;2023-05-07T08:23:27;13.13;;;12.02;;
51907;SDS011;39320;53.214;6.556;2023-05-07T08:25:53;12.48;;;11.38;;
51907;SDS011;39320;53.214;6.556;2023-05-07T08:28:18;13.18;;;11.48;;
51907;SDS011;39320;53.214;6.556;2023-05-07T08:30:46;12.93;;;11.63;;
51907;SDS011;39320;53.214;6.556;2023-05-07T08:33:12;13.07;;;11.90;;
51907;SDS011;39320;53.214;6.556;2023-05-07T08:35:38;12.93;;;11.70;;
51907;SDS011;39320;53.214;6.556;2023-05-07T08:38:04;12.50;;;11.30;;
51907;SDS011;39320;53.214;6.556;2023-05-07T08:40:29;13.07;;;11.88;;
51907;SDS011;39320;53.214;6.556;2023-05-07T08:43:02;12.90;;;11.70;;
51907;SDS011;39320;53.214;6.556;2023-05-07T08:45:30;12.95;;;11.75;;
51907;SDS011;39320;53.214;6.556;2023-05-07T08:47:59;13.52;;;12.23;;
51907;SDS011;39320;53.214;6.556;2023-05-07T08:50:28;12.98;;;11.75;;
51907;SDS011;39320;53.214;6.556;2023-05-07T08:52:54;14.82;;;13.32;;
51907;SDS011;39320;53.214;6.556;2023-05-07T08:55:21;13.60;;;12.20;;
51907;SDS011;39320;53.214;6.556;2023-05-07T08:57:48;14.07;;;12.40;;
51907;SDS011;39320;53.214;6.556;2023-05-07T09:00:14;13.15;;;11.95;;
51907;SDS011;39320;53.214;6.556;2023-05-07T09:02:40;12.85;;;11.55;;
51907;SDS011;39320;53.214;6.556;2023-05-07T09:05:06;12.77;;;11.48;;
51907;SDS011;39320;53.214;6.556;2023-05-07T09:07:32;13.70;;;12.30;;
51907;SDS011;39320;53.214;6.556;2023-05-07T09:09:58;13.15;;;11.82;;
51907;SDS011;39320;53.214;6.556;2023-05-07T09:12:26;12.98;;;11.65;;
51907;SDS011;39320;53.214;6.556;2023-05-07T09:14:52;12.88;;;11.75;;
51907;SDS011;39320;53.214;6.556;2023-05-07T09:17:17;14.45;;;12.38;;
51907;SDS011;39320;53.214;6.556;2023-05-07T09:19:44;13.55;;;12.15;;
51907;SDS011;39320;53.214;6.556;2023-05-07T09:22:13;13.23;;;11.98;;
51907;SDS011;39320;53.214;6.556;2023-05-07T09:24:39;13.75;;;12.45;;
51907;SDS011;39320;53.214;6.556;2023-05-07T09:27:05;14.20;;;11.95;;
51907;SDS011;39320;53.214;6.556;2023-05-07T09:29:33;14.15;;;12.15;;
51907;SDS011;39320;53.214;6.556;2023-05-07T09:32:03;12.25;;;11.13;;
51907;SDS011;39320;53.214;6.556;2023-05-07T09:34:32;14.32;;;12.93;;
51907;SDS011;39320;53.214;6.556;2023-05-07T09:36:58;13.60;;;12.30;;
51907;SDS011;39320;53.214;6.556;2023-05-07T09:42:10;13.48;;;12.23;;
51907;SDS011;39320;53.214;6.556;2023-05-07T09:44:37;12.55;;;11.25;;
51907;SDS011;39320;53.214;6.556;2023-05-07T09:47:06;14.30;;;12.13;;
51907;SDS011;39320;53.214;6.556;2023-05-07T09:49:34;13.20;;;11.90;;
51907;SDS011;39320;53.214;6.556;2023-05-07T09:52:02;12.70;;;11.48;;
51907;SDS011;39320;53.214;6.556;2023-05-07T09:54:37;13.10;;;11.73;;
51907;SDS011;39320;53.214;6.556;2023-05-07T09:57:04;14.25;;;12.85;;
51907;SDS011;39320;53.214;6.556;2023-05-07T09:59:32;13.27;;;11.88;;
51907;SDS011;39320;53.214;6.556;2023-05-07T10:01:58;13.38;;;12.07;;
51907;SDS011;39320;53.214;6.556;2023-05-07T10:04:25;13.45;;;12.15;;
51907;SDS011;39320;53.214;6.556;2023-05-07T10:06:52;13.30;;;11.90;;
51907;SDS011;39320;53.214;6.556;2023-05-07T10:09:19;13.05;;;11.80;;
51907;SDS011;39320;53.214;6.556;2023-05-07T10:11:45;12.48;;;11.20;;
51907;SDS011;39320;53.214;6.556;2023-05-07T10:14:14;13.23;;;11.93;;
51907;SDS011;39320;53.214;6.556;2023-05-07T10:16:40;12.65;;;11.35;;
51907;SDS011;39320;53.214;6.556;2023-05-07T10:19:07;13.35;;;11.98;;
51907;SDS011;39320;53.214;6.556;2023-05-07T10:21:38;12.45;;;11.35;;
51907;SDS011;39320;53.214;6.556;2023-05-07T10:24:09;12.77;;;11.55;;
51907;SDS011;39320;53.214;6.556;2023-05-07T10:26:42;13.73;;;11.52;;
51907;SDS011;39320;53.214;6.556;2023-05-07T10:34:48;12.07;;;10.88;;
51907;SDS011;39320;53.214;6.556;2023-05-07T10:37:18;12.15;;;10.95;;
51907;SDS011;39320;53.214;6.556;2023-05-07T10:39:45;12.85;;;11.55;;
51907;SDS011;39320;53.214;6.556;2023-05-07T10:42:11;12.25;;;11.15;;
51907;SDS011;39320;53.214;6.556;2023-05-07T10:44:38;11.93;;;10.82;;
51907;SDS011;39320;53.214;6.556;2023-05-07T10:47:08;12.48;;;11.38;;
51907;SDS011;39320;53.214;6.556;2023-05-07T10:52:17;11.80;;;10.60;;
51907;SDS011;39320;53.214;6.556;2023-05-07T10:55:18;11.77;;;10.68;;
51907;SDS011;39320;53.214;6.556;2023-05-07T10:57:46;11.98;;;10.52;;
51907;SDS011;39320;53.214;6.556;2023-05-07T11:05:25;12.02;;;10.82;;
51907;SDS011;39320;53.214;6.556;2023-05-07T11:07:56;11.98;;;10.77;;
51907;SDS011;39320;53.214;6.556;2023-05-07T11:10:22;12.10;;;11.00;;
51907;SDS011;39320;53.214;6.556;2023-05-07T11:12:51;12.38;;;11.23;;
51907;SDS011;39320;53.214;6.556;2023-05-07T11:15:37;12.45;;;11.40;;
51907;SDS011;39320;53.214;6.556;2023-05-07T11:18:04;10.88;;;9.88;;
51907;SDS011;39320;53.214;6.556;2023-05-07T11:20:44;11.95;;;10.80;;
51907;SDS011;39320;53.214;6.556;2023-05-07T11:26:05;11.50;;;10.48;;
51907;SDS011;39320;53.214;6.556;2023-05-07T11:28:39;11.20;;;10.13;;
51907;SDS011;39320;53.214;6.556;2023-05-07T11:31:08;10.85;;;9.85;;
51907;SDS011;39320;53.214;6.556;2023-05-07T11:33:35;11.35;;;10.35;;
51907;SDS011;39320;53.214;6.556;2023-05-07T11:36:02;11.45;;;10.35;;
51907;SDS011;39320;53.214;6.556;2023-05-07T11:38:29;10.20;;;9.20;;
51907;SDS011;39320;53.214;6.556;2023-05-07T11:40:57;10.35;;;9.40;;
51907;SDS011;39320;53.214;6.556;2023-05-07T11:43:26;11.85;;;10.85;;
51907;SDS011;39320;53.214;6.556;2023-05-07T11:45:52;11.35;;;10.25;;
51907;SDS011;39320;53.214;6.556;2023-05-07T11:48:18;10.77;;;9.88;;
51907;SDS011;39320;53.214;6.556;2023-05-07T11:53:27;11.15;;;9.93;;
51907;SDS011;39320;53.214;6.556;2023-05-07T11:55:59;10.13;;;9.27;;
51907;SDS011;39320;53.214;6.556;2023-05-07T11:58:26;9.88;;;8.90;;
51907;SDS011;39320;53.214;6.556;2023-05-07T12:00:53;11.05;;;10.05;;
51907;SDS011;39320;53.214;6.556;2023-05-07T12:03:19;12.02;;;10.68;;
51907;SDS011;39320;53.214;6.556;2023-05-07T12:05:45;11.18;;;10.20;;
51907;SDS011;39320;53.214;6.556;2023-05-07T12:08:15;9.57;;;8.57;;
51907;SDS011;39320;53.214;6.556;2023-05-07T12:10:42;11.50;;;10.25;;
51907;SDS011;39320;53.214;6.556;2023-05-07T12:13:18;9.95;;;9.05;;
51907;SDS011;39320;53.214;6.556;2023-05-07T12:15:50;10.77;;;9.68;;
51907;SDS011;39320;53.214;6.556;2023-05-07T12:20:49;10.75;;;9.70;;
51907;SDS011;39320;53.214;6.556;2023-05-07T12:23:15;10.13;;;8.68;;
51907;SDS011;39320;53.214;6.556;2023-05-07T12:25:42;10.05;;;9.13;;
51907;SDS011;39320;53.214;6.556;2023-05-07T12:28:18;10.52;;;9.20;;
51907;SDS011;39320;53.214;6.556;2023-05-07T12:30:48;9.93;;;8.95;;
51907;SDS011;39320;53.214;6.556;2023-05-07T12:33:18;11.10;;;10.13;;
51907;SDS011;39320;53.214;6.556;2023-05-07T12:35:49;10.95;;;9.98;;
51907;SDS011;39320;53.214;6.556;2023-05-07T12:38:16;10.77;;;9.77;;
51907;SDS011;39320;53.214;6.556;2023-05-07T12:40:43;10.88;;;9.70;;
51907;SDS011;39320;53.214;6.556;2023-05-07T12:43:16;10.95;;;9.95;;
51907;SDS011;39320;53.214;6.556;2023-05-07T12:45:43;10.23;;;9.32;;
51907;SDS011;39320;53.214;6.556;2023-05-07T12:48:10;10.88;;;9.57;;
51907;SDS011;39320;53.214;6.556;2023-05-07T12:50:36;9.55;;;8.65;;
51907;SDS011;39320;53.214;6.556;2023-05-07T12:53:03;10.50;;;9.50;;
51907;SDS011;39320;53.214;6.556;2023-05-07T12:55:54;9.68;;;8.80;;
51907;SDS011;39320;53.214;6.556;2023-05-07T12:58:22;9.35;;;8.55;;
51907;SDS011;39320;53.214;6.556;2023-05-07T13:00:53;9.75;;;8.85;;
51907;SDS011;39320;53.214;6.556;2023-05-07T13:03:30;9.30;;;8.50;;
51907;SDS011;39320;53.214;6.556;2023-05-07T13:06:07;9.60;;;8.75;;
51907;SDS011;39320;53.214;6.556;2023-05-07T13:08:39;10.30;;;9.40;;
51907;SDS011;39320;53.214;6.556;2023-05-07T13:11:08;9.50;;;8.70;;
51907;SDS011;39320;53.214;6.556;2023-05-07T13:13:41;9.57;;;8.82;;
51907;SDS011;39320;53.214;6.556;2023-05-07T13:16:08;9.48;;;8.68;;
51907;SDS011;39320;53.214;6.556;2023-05-07T13:18:35;9.13;;;8.38;;
51907;SDS011;39320;53.214;6.556;2023-05-07T13:21:03;9.30;;;8.50;;
51907;SDS011;39320;53.214;6.556;2023-05-07T13:23:29;9.63;;;8.73;;
51907;SDS011;39320;53.214;6.556;2023-05-07T13:25:55;8.88;;;8.00;;
51907;SDS011;39320;53.214;6.556;2023-05-07T13:28:22;9.27;;;8.48;;
51907;SDS011;39320;53.214;6.556;2023-05-07T13:30:48;10.07;;;8.95;;
51907;SDS011;39320;53.214;6.556;2023-05-07T13:33:16;9.35;;;8.55;;
51907;SDS011;39320;53.214;6.556;2023-05-07T13:35:42;8.85;;;8.05;;
51907;SDS011;39320;53.214;6.556;2023-05-07T13:38:08;8.05;;;7.45;;
51907;SDS011;39320;53.214;6.556;2023-05-07T13:40:34;9.48;;;8.65;;
51907;SDS011;39320;53.214;6.556;2023-05-07T13:43:00;8.98;;;8.18;;
51907;SDS011;39320;53.214;6.556;2023-05-07T13:45:29;9.38;;;8.57;;
51907;SDS011;39320;53.214;6.556;2023-05-07T13:47:55;9.90;;;8.90;;
51907;SDS011;39320;53.214;6.556;2023-05-07T13:50:22;10.43;;;9.52;;
51907;SDS011;39320;53.214;6.556;2023-05-07T13:52:47;9.07;;;8.27;;
51907;SDS011;39320;53.214;6.556;2023-05-07T13:55:18;8.48;;;7.78;;
51907;SDS011;39320;53.214;6.556;2023-05-07T13:57:45;9.95;;;9.00;;
51907;SDS011;39320;53.214;6.556;2023-05-07T14:00:12;8.20;;;7.50;;
51907;SDS011;39320;53.214;6.556;2023-05-07T14:02:39;8.57;;;7.88;;
51907;SDS011;39320;53.214;6.556;2023-05-07T14:05:05;8.40;;;7.60;;
51907;SDS011;39320;53.214;6.556;2023-05-07T14:07:32;8.63;;;7.82;;
51907;SDS011;39320;53.214;6.556;2023-05-07T14:09:58;7.55;;;6.95;;
51907;SDS011;39320;53.214;6.556;2023-05-07T14:12:23;7.68;;;7.07;;
51907;SDS011;39320;53.214;6.556;2023-05-07T14:14:49;7.60;;;7.00;;
51907;SDS011;39320;53.214;6.556;2023-05-07T14:17:18;8.02;;;7.32;;
51907;SDS011;39320;53.214;6.556;2023-05-07T14:19:45;8.95;;;8.25;;
51907;SDS011;39320;53.214;6.556;2023-05-07T14:22:12;8.68;;;7.97;;
51907;SDS011;39320;53.214;6.556;2023-05-07T14:24:38;8.93;;;8.10;;
51907;SDS011;39320;53.214;6.556;2023-05-07T14:27:04;8.60;;;7.80;;
51907;SDS011;39320;53.214;6.556;2023-05-07T14:29:31;8.50;;;7.80;;
51907;SDS011;39320;53.214;6.556;2023-05-07T14:31:56;8.13;;;7.30;;
51907;SDS011;39320;53.214;6.556;2023-05-07T14:34:22;8.90;;;8.10;;
51907;SDS011;39320;53.214;6.556;2023-05-07T14:36:48;8.23;;;7.45;;
51907;SDS011;39320;53.214;6.556;2023-05-07T14:39:14;8.38;;;7.57;;
51907;SDS011;39320;53.214;6.556;2023-05-07T14:41:40;8.57;;;7.82;;
51907;SDS011;39320;53.214;6.556;2023-05-07T14:44:06;8.32;;;7.63;;
51907;SDS011;39320;53.214;6.556;2023-05-07T14:46:31;8.13;;;7.43;;
51907;SDS011;39320;53.214;6.556;2023-05-07T14:48:57;8.57;;;7.70;;